createdAt,value
2019-02-23T00:01:22.260Z,2.30
2019-02-23T00:06:30.287Z,2.21
2019-02-23T00:11:36.391Z,2.13
2019-02-23T00:16:42.553Z,2.10
2019-02-23T00:21:48.210Z,2.01
2019-02-23T00:26:53.510Z,1.99
2019-02-23T00:31:58.787Z,1.99
2019-02-23T00:37:03.866Z,1.98
2019-02-23T00:42:11.846Z,1.94
2019-02-23T00:47:16.905Z,1.86
2019-02-23T00:52:22.718Z,1.81
2019-02-23T00:57:31.300Z,1.85
2019-02-23T01:02:36.911Z,1.81
2019-02-23T01:07:52.840Z,1.82
2019-02-23T01:13:02.135Z,1.85
2019-02-23T01:18:13.082Z,1.88
2019-02-23T01:23:20.466Z,1.89
2019-02-23T01:28:29.513Z,1.89
2019-02-23T01:33:35.673Z,1.87
2019-02-23T01:38:43.134Z,1.78
2019-02-23T01:43:48.242Z,1.69
2019-02-23T01:48:54.383Z,1.67
2019-02-23T01:54:00.248Z,1.63
2019-02-23T01:59:05.963Z,1.58
2019-02-23T02:04:11.154Z,1.57
2019-02-23T02:09:18.422Z,1.51
2019-02-23T02:14:24.158Z,1.50
2019-02-23T02:19:30.202Z,1.50
2019-02-23T02:24:38.524Z,1.51
2019-02-23T02:29:44.034Z,1.51
2019-02-23T02:34:50.512Z,1.53
2019-02-23T02:39:56.909Z,1.45
2019-02-23T02:45:02.140Z,1.40
2019-02-23T02:50:08.652Z,1.31
2019-02-23T02:55:15.454Z,1.23
2019-02-23T03:00:21.845Z,1.15
2019-02-23T03:05:27.254Z,1.14
2019-02-23T03:10:36.438Z,1.14
2019-02-23T03:15:42.653Z,1.05
2019-02-23T03:20:48.261Z,1.04
2019-02-23T03:25:53.753Z,1.03
2019-02-23T03:30:59.109Z,1.03
2019-02-23T03:36:04.457Z,1.03
2019-02-23T03:41:09.483Z,0.99
2019-02-23T03:46:14.583Z,1.03
2019-02-23T03:51:19.695Z,1.03
2019-02-23T03:56:24.821Z,0.93
2019-02-23T04:01:29.929Z,0.88
2019-02-23T04:06:34.913Z,0.80
2019-02-23T04:11:40.029Z,0.78
2019-02-23T04:16:45.138Z,0.74
2019-02-23T04:21:50.625Z,0.69
2019-02-23T04:26:55.696Z,0.70
2019-02-23T04:32:00.838Z,0.71
2019-02-23T04:37:06.015Z,0.72
2019-02-23T04:42:11.139Z,0.70
2019-02-23T04:47:16.330Z,0.65
2019-02-23T04:52:21.461Z,0.55
2019-02-23T04:57:50.678Z,0.47
2019-02-23T05:02:55.811Z,0.44
2019-02-23T05:08:00.891Z,0.42
2019-02-23T05:13:06.037Z,0.44
2019-02-23T05:18:11.197Z,0.40
2019-02-23T05:23:21.346Z,0.30
2019-02-23T05:28:26.421Z,0.25
2019-02-23T05:33:31.464Z,0.24
2019-02-23T05:38:36.489Z,0.31
2019-02-23T05:43:42.167Z,0.25
2019-02-23T05:48:47.265Z,0.18
2019-02-23T05:53:52.501Z,0.19
2019-02-23T05:58:57.749Z,0.24
2019-02-23T06:04:02.899Z,0.27
2019-02-23T06:09:08.248Z,0.27
2019-02-23T06:14:13.638Z,0.27
2019-02-23T06:19:19.099Z,0.18
2019-02-23T06:24:28.094Z,0.16
2019-02-23T06:29:33.343Z,0.13
2019-02-23T06:34:38.459Z,0.14
2019-02-23T06:39:44.023Z,0.21
2019-02-23T06:44:50.039Z,0.30
2019-02-23T06:49:55.347Z,0.34
2019-02-23T06:55:00.631Z,0.42
2019-02-23T07:00:07.104Z,0.48
2019-02-23T07:05:12.800Z,0.54
2019-02-23T07:10:17.995Z,0.57
2019-02-23T07:15:23.213Z,0.61
2019-02-23T07:20:29.047Z,0.45
2019-02-23T07:25:34.321Z,0.48
2019-02-23T07:30:39.491Z,0.58
2019-02-23T07:35:47.371Z,0.64
2019-02-23T07:40:54.808Z,0.76
2019-02-23T07:46:00.061Z,0.82
2019-02-23T07:51:05.177Z,0.90
2019-02-23T07:56:10.463Z,0.96
2019-02-23T08:01:15.670Z,1.07
2019-02-23T08:06:20.755Z,0.95
2019-02-23T08:11:26.569Z,1.02
2019-02-23T08:16:33.639Z,1.12
2019-02-23T08:21:43.195Z,1.38
2019-02-23T08:26:51.215Z,1.68
2019-02-23T08:31:58.889Z,1.98
2019-02-23T08:37:04.875Z,2.14
2019-02-23T08:42:11.201Z,2.20
2019-02-23T08:47:20.064Z,2.05
2019-02-23T08:52:25.562Z,1.92
2019-02-23T08:57:31.367Z,1.93
2019-02-23T09:02:36.579Z,1.96
2019-02-23T09:07:41.938Z,1.95
2019-02-23T09:12:47.118Z,2.10
2019-02-23T09:17:55.152Z,2.23
2019-02-23T09:23:02.527Z,2.28
2019-02-23T09:28:12.038Z,2.40
2019-02-23T09:33:17.331Z,2.79
2019-02-23T09:38:24.195Z,3.29
2019-02-23T09:43:31.170Z,6.70
2019-02-23T09:48:39.807Z,11.30
2019-02-23T09:53:45.249Z,13.07
2019-02-23T09:58:51.019Z,13.71
2019-02-23T10:04:01.849Z,15.04
2019-02-23T10:09:08.390Z,15.72
2019-02-23T10:14:13.571Z,16.24
2019-02-23T10:19:18.823Z,16.79
2019-02-23T10:24:24.145Z,16.67
2019-02-23T10:29:30.099Z,16.83
2019-02-23T10:34:35.411Z,15.96
2019-02-23T10:39:40.441Z,14.77
2019-02-23T10:44:45.713Z,14.23
2019-02-23T10:49:50.757Z,13.68
2019-02-23T10:54:55.892Z,12.70
2019-02-23T11:00:01.059Z,12.92
2019-02-23T11:05:09.651Z,12.48
2019-02-23T11:10:15.262Z,11.60
2019-02-23T11:15:22.261Z,11.11
2019-02-23T11:20:27.909Z,12.56
2019-02-23T11:25:33.525Z,12.53
2019-02-23T11:30:38.655Z,11.83
2019-02-23T11:35:43.818Z,11.51
2019-02-23T11:40:48.857Z,11.15
2019-02-23T11:45:53.937Z,11.28
2019-02-23T11:51:00.607Z,12.42
2019-02-23T11:56:05.907Z,12.81
2019-02-23T12:01:11.723Z,12.82
2019-02-23T12:06:17.265Z,13.08
2019-02-23T12:11:22.309Z,13.58
2019-02-23T12:16:27.827Z,13.91
2019-02-23T12:21:33.099Z,13.64
2019-02-23T12:26:39.829Z,13.76
2019-02-23T12:31:45.417Z,15.08
2019-02-23T12:36:51.338Z,15.70
2019-02-23T12:41:59.721Z,17.02
2019-02-23T12:47:05.213Z,17.27
2019-02-23T12:52:10.283Z,18.69
2019-02-23T12:57:18.179Z,18.71
2019-02-23T13:02:23.477Z,18.95
2019-02-23T13:07:29.303Z,19.21
2019-02-23T13:13:18.565Z,18.73
2019-02-23T13:19:29.379Z,18.41
2019-02-23T13:25:06.725Z,17.81
2019-02-23T13:30:59.044Z,18.47
2019-02-23T13:36:45.407Z,18.11
2019-02-23T13:42:16.315Z,17.73
2019-02-23T13:47:59.433Z,16.00
2019-02-23T13:53:37.249Z,13.74
2019-02-23T13:59:07.735Z,13.83
2019-02-23T14:04:51.857Z,14.42
2019-02-23T14:10:32.869Z,14.71
2019-02-23T14:16:19.339Z,14.47
2019-02-23T14:22:08.792Z,14.28
2019-02-23T14:27:51.019Z,13.40
2019-02-23T14:33:32.141Z,12.58
2019-02-23T14:38:57.855Z,11.75
2019-02-23T14:44:35.264Z,10.32
2019-02-23T14:50:24.391Z,9.27
2019-02-23T14:56:05.377Z,9.13
2019-02-23T15:01:47.815Z,8.93
2019-02-23T15:07:20.107Z,8.76
2019-02-23T15:13:06.479Z,8.60
2019-02-23T15:19:01.923Z,8.19
2019-02-23T15:25:00.334Z,8.09
2019-02-23T15:30:16.873Z,8.14
2019-02-23T15:35:43.855Z,7.84
2019-02-23T15:40:52.223Z,7.78
2019-02-23T15:46:08.788Z,7.75
2019-02-23T15:51:13.914Z,7.59
2019-02-23T15:56:18.980Z,7.44
2019-02-23T16:01:25.697Z,7.33
2019-02-23T16:06:31.987Z,7.29
2019-02-23T16:11:39.359Z,7.20
2019-02-23T16:16:47.301Z,7.15
2019-02-23T16:21:52.967Z,7.01
2019-02-23T16:27:00.049Z,7.02
2019-02-23T16:32:05.996Z,6.85
2019-02-23T16:37:11.699Z,6.79
2019-02-23T16:42:17.381Z,6.70
2019-02-23T16:47:29.877Z,6.62
2019-02-23T16:52:35.265Z,6.50
2019-02-23T16:57:45.886Z,6.45
2019-02-23T17:02:50.970Z,6.26
2019-02-23T17:07:56.877Z,6.19
2019-02-23T17:13:02.111Z,6.11
2019-02-23T17:18:07.219Z,6.05
2019-02-23T17:23:12.299Z,5.96
2019-02-23T17:28:17.442Z,5.92
2019-02-23T17:33:22.924Z,5.85
2019-02-23T17:38:28.073Z,5.78
2019-02-23T17:43:34.235Z,5.78
2019-02-23T17:48:39.358Z,5.76
2019-02-23T17:53:44.562Z,5.70
2019-02-23T17:58:49.758Z,5.62
2019-02-23T18:03:54.870Z,5.61
2019-02-23T18:09:01.153Z,5.54
2019-02-23T18:14:07.365Z,5.48
2019-02-23T18:19:12.513Z,5.39
2019-02-23T18:24:17.718Z,5.39
2019-02-23T18:29:22.954Z,5.34
2019-02-23T18:34:28.253Z,5.31
2019-02-23T18:39:33.510Z,5.26
2019-02-23T18:44:38.810Z,5.23
2019-02-23T18:49:43.871Z,5.12
2019-02-23T18:54:49.093Z,5.05
2019-02-23T18:59:54.220Z,5.02
2019-02-23T19:04:59.894Z,5.03
2019-02-23T19:10:05.578Z,5.03
2019-02-23T19:15:12.688Z,5.01
2019-02-23T19:20:17.813Z,5.00
2019-02-23T19:25:23.299Z,4.96
2019-02-23T19:30:30.925Z,4.92
2019-02-23T19:35:36.867Z,4.88
2019-02-23T19:40:46.463Z,4.80
2019-02-23T19:45:52.138Z,4.71
2019-02-23T19:51:05.018Z,4.68
2019-02-23T19:56:20.400Z,4.66
2019-02-23T20:01:25.882Z,4.62
2019-02-23T20:06:31.621Z,4.59
2019-02-23T20:11:38.849Z,4.50
2019-02-23T20:16:47.792Z,4.45
2019-02-23T20:21:55.073Z,4.39
2019-02-23T20:27:06.616Z,4.39
2019-02-23T20:32:14.954Z,4.39
2019-02-23T20:37:24.383Z,4.37
2019-02-23T20:42:36.021Z,4.35
2019-02-23T20:47:43.036Z,4.34
2019-02-23T20:52:48.461Z,4.35
2019-02-23T20:57:59.662Z,4.33
2019-02-23T21:03:07.486Z,4.28
2019-02-23T21:08:14.114Z,4.23
2019-02-23T21:13:19.222Z,4.21
2019-02-23T21:18:24.239Z,4.25
2019-02-23T21:23:32.775Z,4.14
2019-02-23T21:28:38.402Z,4.05
2019-02-23T21:33:46.794Z,4.01
2019-02-23T21:38:52.972Z,3.99
2019-02-23T21:44:00.256Z,3.95
2019-02-23T21:49:05.446Z,3.93
2019-02-23T21:54:13.583Z,3.90
2019-02-23T21:59:21.588Z,3.84
2019-02-23T22:04:27.201Z,3.75
2019-02-23T22:09:32.341Z,3.69
2019-02-23T22:14:41.031Z,3.67
2019-02-23T22:19:49.814Z,3.68
2019-02-23T22:24:56.153Z,3.61
2019-02-23T22:30:02.223Z,3.54
2019-02-23T22:35:12.357Z,3.59
2019-02-23T22:40:19.162Z,3.59
2019-02-23T22:45:24.248Z,3.54
2019-02-23T22:50:29.471Z,3.51
2019-02-23T22:55:34.662Z,3.46
2019-02-23T23:01:02.778Z,3.44
2019-02-23T23:06:11.581Z,3.44
2019-02-23T23:11:17.284Z,3.41
2019-02-23T23:16:22.664Z,3.35
2019-02-23T23:21:29.091Z,3.27
2019-02-23T23:26:36.678Z,3.26
2019-02-23T23:31:43.334Z,3.17
2019-02-23T23:36:48.982Z,3.13
2019-02-23T23:41:54.578Z,3.14
2019-02-23T23:47:03.310Z,3.17
2019-02-23T23:52:08.554Z,3.15
2019-02-23T23:57:14.933Z,3.15
